Time;durP1;ratioP1;P1;durP2;ratioP2;P2;SDS_P1;SDS_P2;PMS_P1;PMS_P2;Temp;Humidity;BMP_temperature;BMP_pressure;BME280_temperature;BME280_humidity;BME280_pressure;Samples;Min_cycle;Max_cycle;Signal;HPM_P1;HPM_P2
2021/11/26 00:02:07;;;;;;;8.45;1.75;;;3.70;99.90;;;;;;4984534;28;20049;-65
2021/11/26 00:04:33;;;;;;;10.07;2.00;;;3.70;99.90;;;;;;5008389;28;20038;-65
2021/11/26 00:06:58;;;;;;;7.75;1.52;;;3.80;99.90;;;;;;5000700;28;20048;-65
2021/11/26 00:09:24;;;;;;;11.70;2.28;;;3.80;99.90;;;;;;5009052;28;20041;-65
2021/11/26 00:11:50;;;;;;;9.80;2.28;;;3.90;99.90;;;;;;5019163;28;20048;-65
2021/11/26 00:14:25;;;;;;;7.70;1.50;;;3.90;99.90;;;;;;5024208;28;20313;-65
2021/11/26 00:16:58;;;;;;;7.00;1.80;;;3.90;99.90;;;;;;5020436;28;20053;-65
2021/11/26 00:19:27;;;;;;;8.55;2.00;;;3.90;99.90;;;;;;5025764;28;20149;-65
2021/11/26 00:21:53;;;;;;;11.65;2.22;;;4.00;99.90;;;;;;5016442;28;20033;-65
2021/11/26 00:24:19;;;;;;;8.85;1.75;;;4.00;99.90;;;;;;5019265;28;20077;-65
2021/11/26 00:26:49;;;;;;;9.68;2.00;;;4.00;99.90;;;;;;5020917;28;20037;-65
2021/11/26 00:29:15;;;;;;;6.20;1.55;;;4.00;99.90;;;;;;5026356;28;20152;-65
2021/11/26 00:31:41;;;;;;;14.73;1.60;;;4.10;99.90;;;;;;5018192;28;20033;-65
2021/11/26 00:34:08;;;;;;;7.00;1.40;;;4.10;99.90;;;;;;5026139;28;20034;-65
2021/11/26 00:36:34;;;;;;;12.95;1.63;;;4.10;99.90;;;;;;5026177;28;20081;-65
2021/11/26 00:39:00;;;;;;;11.02;1.92;;;4.10;99.90;;;;;;5017562;28;20041;-65
2021/11/26 00:41:27;;;;;;;6.32;1.52;;;4.10;99.90;;;;;;5026536;28;20038;-66
2021/11/26 00:43:53;;;;;;;10.45;1.75;;;4.10;99.90;;;;;;4999670;28;20040;-65
2021/11/26 00:46:20;;;;;;;5.60;1.23;;;4.10;99.90;;;;;;5001156;28;20140;-65
2021/11/26 00:48:46;;;;;;;10.57;1.73;;;4.10;99.90;;;;;;5016870;28;20038;-65
2021/11/26 00:51:12;;;;;;;7.45;1.30;;;4.10;99.90;;;;;;5022225;28;20064;-65
2021/11/26 00:53:38;;;;;;;7.63;1.52;;;4.10;99.90;;;;;;5021347;28;20141;-65
2021/11/26 00:56:04;;;;;;;11.18;1.67;;;4.00;99.90;;;;;;5012693;28;20124;-65
2021/11/26 00:58:31;;;;;;;7.13;1.52;;;4.00;99.90;;;;;;5020167;28;20048;-65
2021/11/26 01:00:56;;;;;;;8.38;1.48;;;4.00;99.90;;;;;;5030041;28;20040;-65
2021/11/26 01:03:22;;;;;;;7.13;1.63;;;4.00;99.90;;;;;;5022927;28;20094;-65
2021/11/26 01:05:49;;;;;;;7.05;1.15;;;3.90;99.90;;;;;;5029676;28;20065;-65
2021/11/26 01:08:16;;;;;;;9.10;1.40;;;3.90;99.90;;;;;;5026114;28;20505;-65
2021/11/26 01:10:43;;;;;;;7.15;1.10;;;3.90;99.90;;;;;;5030676;28;20278;-65
2021/11/26 01:13:09;;;;;;;4.00;1.10;;;3.90;99.90;;;;;;5024734;28;20501;-65
2021/11/26 01:15:39;;;;;;;5.75;1.35;;;3.80;99.90;;;;;;5010700;28;20045;-65
2021/11/26 01:18:06;;;;;;;9.15;1.33;;;3.80;99.90;;;;;;5031449;28;20041;-65
2021/11/26 01:20:34;;;;;;;6.85;1.00;;;3.80;99.90;;;;;;5007467;28;20044;-65
2021/11/26 01:23:00;;;;;;;5.30;0.80;;;3.80;99.90;;;;;;5008537;28;20045;-65
2021/11/26 01:25:27;;;;;;;7.55;0.93;;;3.90;99.90;;;;;;5020862;28;20096;-65
2021/11/26 01:27:53;;;;;;;10.57;1.00;;;3.80;99.90;;;;;;5026867;28;20418;-65
2021/11/26 01:30:34;;;;;;;4.53;1.00;;;3.90;99.90;;;;;;5022746;28;20144;-65
2021/11/26 01:33:03;;;;;;;7.32;0.98;;;3.90;99.90;;;;;;5024643;28;20475;-65
2021/11/26 01:35:29;;;;;;;6.75;0.85;;;3.90;99.90;;;;;;5007413;28;20038;-65
2021/11/26 01:37:55;;;;;;;8.82;1.05;;;3.90;99.90;;;;;;5027600;28;20276;-65
2021/11/26 01:40:21;;;;;;;11.07;1.33;;;3.80;99.90;;;;;;5023366;28;20124;-65
2021/11/26 01:42:50;;;;;;;8.68;0.82;;;3.80;99.90;;;;;;5006935;28;20327;-65
2021/11/26 01:45:17;;;;;;;7.70;1.20;;;3.80;99.90;;;;;;5022683;28;20061;-65
2021/11/26 01:47:43;;;;;;;10.13;1.10;;;3.80;99.90;;;;;;5026858;28;20060;-65
2021/11/26 01:50:10;;;;;;;10.50;1.40;;;3.80;99.90;;;;;;5024890;28;20071;-65
2021/11/26 01:52:36;;;;;;;5.28;1.08;;;3.80;99.90;;;;;;5010073;28;20066;-65
2021/11/26 01:55:05;;;;;;;8.10;1.10;;;3.80;99.90;;;;;;5021073;28;20071;-65
2021/11/26 01:57:31;;;;;;;9.43;1.20;;;3.80;99.90;;;;;;5029447;28;20112;-65
2021/11/26 01:59:57;;;;;;;7.93;1.10;;;3.80;99.90;;;;;;5001852;28;20053;-65
2021/11/26 02:02:23;;;;;;;7.90;1.02;;;3.70;99.90;;;;;;5010924;28;20057;-65
2021/11/26 02:04:48;;;;;;;10.55;1.23;;;3.70;99.90;;;;;;5011534;28;20057;-65
2021/11/26 02:07:14;;;;;;;8.73;1.25;;;3.80;99.90;;;;;;5006345;28;20490;-65
2021/11/26 02:09:40;;;;;;;9.93;1.33;;;3.80;99.90;;;;;;5026372;28;20052;-65
2021/11/26 02:12:07;;;;;;;8.82;1.42;;;3.80;99.90;;;;;;5023967;28;20041;-65
2021/11/26 02:14:33;;;;;;;8.52;1.50;;;3.80;99.90;;;;;;5008693;28;20041;-65
2021/11/26 02:16:58;;;;;;;15.18;2.25;;;3.80;99.90;;;;;;5001133;28;20148;-65
2021/11/26 02:19:26;;;;;;;10.63;2.17;;;3.90;99.90;;;;;;5010893;28;20505;-65
2021/11/26 02:21:53;;;;;;;13.18;1.80;;;3.90;99.90;;;;;;5023554;28;20521;-65
2021/11/26 02:24:20;;;;;;;6.10;1.38;;;3.90;99.90;;;;;;5028963;28;20033;-65
2021/11/26 02:26:48;;;;;;;8.98;2.22;;;3.90;99.90;;;;;;5022185;28;20030;-65
2021/11/26 02:29:15;;;;;;;10.73;1.70;;;4.00;99.90;;;;;;5009615;28;20053;-65
2021/11/26 02:31:42;;;;;;;9.02;1.48;;;4.00;99.90;;;;;;5020343;28;20691;-65
2021/11/26 02:34:07;;;;;;;7.10;2.17;;;4.00;99.90;;;;;;5008726;28;20049;-65
2021/11/26 02:36:33;;;;;;;10.13;2.03;;;4.00;99.90;;;;;;5021573;28;20101;-65
2021/11/26 02:39:00;;;;;;;9.60;2.25;;;4.10;99.90;;;;;;5010592;28;20521;-65
2021/11/26 02:41:26;;;;;;;8.88;1.83;;;4.10;99.90;;;;;;5026067;28;20041;-65
2021/11/26 02:43:52;;;;;;;6.63;1.83;;;4.10;99.90;;;;;;5017169;28;20439;-65
2021/11/26 02:46:20;;;;;;;6.07;1.48;;;4.20;99.90;;;;;;5027191;28;20034;-65
2021/11/26 02:48:46;;;;;;;9.93;1.40;;;4.20;99.90;;;;;;5021162;28;20445;-65
2021/11/26 02:51:13;;;;;;;5.80;1.10;;;4.20;99.90;;;;;;5009627;28;20462;-65
2021/11/26 02:53:39;;;;;;;8.43;1.45;;;4.30;99.90;;;;;;5002612;28;20045;-65
2021/11/26 02:56:05;;;;;;;5.85;1.00;;;4.30;99.90;;;;;;5024939;28;20041;-65
2021/11/26 02:58:31;;;;;;;5.32;1.13;;;4.30;99.90;;;;;;5003019;28;20463;-65
2021/11/26 03:00:58;;;;;;;6.03;1.05;;;4.30;99.90;;;;;;5007424;28;20089;-65
2021/11/26 03:03:24;;;;;;;4.32;0.60;;;4.40;99.90;;;;;;5020760;28;20041;-65
2021/11/26 03:05:58;;;;;;;6.30;0.90;;;4.40;99.90;;;;;;5026140;28;20318;-65
2021/11/26 03:08:24;;;;;;;6.32;0.93;;;4.40;99.90;;;;;;5020989;28;20041;-65
2021/11/26 03:10:51;;;;;;;3.75;0.50;;;4.40;99.90;;;;;;5027257;28;20122;-65
2021/11/26 03:13:16;;;;;;;4.13;0.90;;;4.40;99.90;;;;;;5020835;28;20563;-65
2021/11/26 03:15:43;;;;;;;6.15;0.60;;;4.40;99.90;;;;;;5025264;28;20045;-65
2021/11/26 03:18:13;;;;;;;4.15;0.43;;;4.40;99.90;;;;;;5019626;28;20045;-65
2021/11/26 03:20:39;;;;;;;4.05;0.73;;;4.40;99.90;;;;;;5010493;28;20119;-65
2021/11/26 03:23:04;;;;;;;4.40;0.70;;;4.40;99.90;;;;;;5010270;28;20116;-65
2021/11/26 03:25:30;;;;;;;7.10;0.52;;;4.40;99.90;;;;;;5021527;28;20478;-65
2021/11/26 03:27:56;;;;;;;6.57;0.90;;;4.40;99.90;;;;;;5007813;28;20172;-65
2021/11/26 03:30:21;;;;;;;4.13;1.00;;;4.30;99.90;;;;;;5021522;28;20053;-65
2021/11/26 03:32:47;;;;;;;5.97;1.30;;;4.30;99.90;;;;;;5025333;28;20068;-65
2021/11/26 03:35:15;;;;;;;7.32;1.17;;;4.40;99.90;;;;;;5018726;28;20045;-65
2021/11/26 03:37:41;;;;;;;5.25;1.30;;;4.40;99.90;;;;;;5028570;28;20037;-65
2021/11/26 03:40:09;;;;;;;5.03;1.40;;;4.40;99.90;;;;;;5020831;28;20136;-65
2021/11/26 03:42:34;;;;;;;6.53;1.70;;;4.40;99.90;;;;;;5025434;28;20029;-65
2021/11/26 03:45:01;;;;;;;5.75;1.17;;;4.40;99.90;;;;;;5018152;28;20087;-65
2021/11/26 03:47:27;;;;;;;5.32;1.38;;;4.40;99.90;;;;;;5028588;28;20047;-65
2021/11/26 03:49:53;;;;;;;3.83;1.20;;;4.30;99.90;;;;;;5000028;28;20046;-65
2021/11/26 03:52:19;;;;;;;7.15;1.20;;;4.30;99.90;;;;;;5022941;28;20108;-65
2021/11/26 03:54:45;;;;;;;5.03;1.27;;;4.30;99.90;;;;;;5019266;28;20057;-65
2021/11/26 03:57:11;;;;;;;5.35;1.20;;;4.30;99.90;;;;;;5008423;28;20053;-65
2021/11/26 03:59:37;;;;;;;7.15;1.17;;;4.40;99.90;;;;;;5016330;28;20033;-65
2021/11/26 04:02:03;;;;;;;5.57;1.20;;;4.20;99.90;;;;;;5026529;28;20055;-65
2021/11/26 04:04:30;;;;;;;4.35;1.42;;;4.20;99.90;;;;;;5027791;28;20075;-65
2021/11/26 04:06:56;;;;;;;5.53;1.67;;;4.20;99.90;;;;;;4998304;28;20410;-65
2021/11/26 04:09:22;;;;;;;5.05;1.08;;;4.10;99.90;;;;;;5024937;28;20033;-65
2021/11/26 04:11:48;;;;;;;4.85;0.98;;;4.10;99.90;;;;;;5016624;28;20050;-65
2021/11/26 04:14:14;;;;;;;6.03;0.98;;;4.10;99.90;;;;;;5014912;28;20076;-65
2021/11/26 04:16:39;;;;;;;5.90;0.82;;;4.00;99.90;;;;;;5009779;28;20329;-65
2021/11/26 04:19:05;;;;;;;7.13;0.80;;;4.00;99.90;;;;;;5023656;28;20037;-65
2021/11/26 04:21:33;;;;;;;4.32;0.70;;;4.00;99.90;;;;;;5019881;28;20033;-65
2021/11/26 04:23:59;;;;;;;4.20;0.80;;;3.90;99.90;;;;;;5023744;28;20867;-65
2021/11/26 04:26:25;;;;;;;5.22;0.70;;;3.90;99.90;;;;;;5019638;28;20536;-65
2021/11/26 04:28:52;;;;;;;3.22;0.60;;;3.90;99.90;;;;;;5025192;28;20045;-65
2021/11/26 04:31:17;;;;;;;6.57;0.70;;;4.00;99.90;;;;;;5021028;28;20550;-65
2021/11/26 04:33:43;;;;;;;4.90;0.70;;;4.00;99.90;;;;;;5004007;28;20041;-65
2021/11/26 04:36:09;;;;;;;3.85;0.90;;;4.00;99.90;;;;;;5018429;28;20033;-65
2021/11/26 04:38:35;;;;;;;3.22;0.70;;;4.00;99.90;;;;;;5007598;28;20108;-65
2021/11/26 04:41:00;;;;;;;5.72;1.13;;;4.00;99.90;;;;;;5025133;28;20056;-65
2021/11/26 04:43:26;;;;;;;2.60;1.10;;;4.00;99.90;;;;;;4984633;28;20541;-66
2021/11/26 04:45:52;;;;;;;9.05;1.80;;;4.00;99.90;;;;;;5024412;28;20042;-65
2021/11/26 04:48:22;;;;;;;6.88;1.33;;;4.00;99.90;;;;;;5021337;28;20087;-65
2021/11/26 04:50:49;;;;;;;9.73;2.38;;;4.00;99.90;;;;;;5003628;28;20390;-65
2021/11/26 04:53:16;;;;;;;7.05;2.67;;;4.00;99.90;;;;;;5017618;28;20060;-65
2021/11/26 04:55:42;;;;;;;8.90;2.80;;;4.00;99.90;;;;;;5026813;28;20045;-65
2021/11/26 04:58:08;;;;;;;5.55;2.55;;;4.10;99.90;;;;;;5017754;28;20069;-65
2021/11/26 05:00:34;;;;;;;6.63;2.28;;;4.10;99.90;;;;;;5024754;28;20067;-65
2021/11/26 05:03:00;;;;;;;9.02;2.75;;;4.10;99.90;;;;;;5003377;28;20042;-65
2021/11/26 05:05:25;;;;;;;11.65;2.60;;;4.10;99.90;;;;;;5006771;28;20037;-65
2021/11/26 05:07:52;;;;;;;7.75;2.60;;;4.10;99.90;;;;;;5000117;28;20037;-65
2021/11/26 05:10:19;;;;;;;5.05;2.90;;;4.00;99.90;;;;;;5026581;28;20044;-65
2021/11/26 05:12:50;;;;;;;10.18;2.95;;;3.90;99.90;;;;;;5021581;28;20124;-65
2021/11/26 05:15:16;;;;;;;7.53;2.65;;;3.90;99.90;;;;;;5024149;28;20037;-65
2021/11/26 05:17:43;;;;;;;8.95;2.45;;;3.90;99.90;;;;;;5020380;28;20041;-65
2021/11/26 05:20:09;;;;;;;8.23;2.80;;;3.90;99.90;;;;;;5009731;28;20038;-65
2021/11/26 05:22:35;;;;;;;12.05;2.80;;;3.80;99.90;;;;;;5026817;28;20034;-65
2021/11/26 05:25:00;;;;;;;9.15;2.70;;;3.80;99.90;;;;;;5003658;28;20053;-65
2021/11/26 05:27:26;;;;;;;9.23;3.50;;;3.70;99.90;;;;;;5024859;28;20029;-65
2021/11/26 05:29:52;;;;;;;7.63;3.10;;;3.70;99.90;;;;;;5000374;28;20061;-65
2021/11/26 05:32:17;;;;;;;13.23;3.00;;;3.70;99.90;;;;;;5022317;28;20045;-65
2021/11/26 05:34:43;;;;;;;12.15;3.28;;;3.60;99.90;;;;;;5001898;28;20043;-65
2021/11/26 05:37:09;;;;;;;12.00;2.67;;;3.60;99.90;;;;;;5009862;28;20041;-65
2021/11/26 05:39:34;;;;;;;8.32;2.78;;;3.50;99.90;;;;;;5003801;28;20045;-65
2021/11/26 05:42:00;;;;;;;7.65;3.05;;;3.50;99.90;;;;;;5024201;28;20052;-66
2021/11/26 05:44:26;;;;;;;8.73;3.33;;;3.50;99.90;;;;;;5004864;28;20125;-66
2021/11/26 05:46:51;;;;;;;9.60;2.90;;;3.50;99.90;;;;;;5030070;28;20042;-66
2021/11/26 05:49:17;;;;;;;8.20;3.40;;;3.40;99.90;;;;;;5004605;28;20044;-66
2021/11/26 05:51:43;;;;;;;10.30;3.72;;;3.40;99.90;;;;;;5026944;28;20397;-66
2021/11/26 05:54:09;;;;;;;9.80;3.88;;;3.40;99.90;;;;;;5022608;28;20577;-66
2021/11/26 05:56:34;;;;;;;9.52;3.65;;;3.40;99.90;;;;;;5011654;28;20353;-66
2021/11/26 05:59:00;;;;;;;12.88;4.60;;;3.40;99.90;;;;;;5025104;28;20501;-66
2021/11/26 06:01:26;;;;;;;12.45;4.18;;;3.40;99.90;;;;;;5023475;28;20100;-66
2021/11/26 06:03:52;;;;;;;15.80;4.88;;;3.50;99.90;;;;;;5029857;28;20046;-66
2021/11/26 06:06:17;;;;;;;11.30;5.05;;;3.40;99.90;;;;;;5025056;28;20041;-66
2021/11/26 06:08:43;;;;;;;16.00;5.22;;;3.50;99.90;;;;;;5026701;28;20393;-66
2021/11/26 06:11:09;;;;;;;9.65;4.72;;;3.40;99.90;;;;;;5023464;28;20116;-66
2021/11/26 06:13:35;;;;;;;9.15;4.93;;;3.50;99.90;;;;;;5028044;28;20547;-66
2021/11/26 06:16:00;;;;;;;13.65;6.43;;;3.50;99.90;;;;;;5004342;28;20506;-66
2021/11/26 06:18:26;;;;;;;11.85;5.10;;;3.50;99.90;;;;;;5029189;28;20215;-66
2021/11/26 06:20:52;;;;;;;13.05;5.00;;;3.50;99.90;;;;;;5004905;28;20065;-66
2021/11/26 06:23:18;;;;;;;9.07;3.95;;;3.50;99.90;;;;;;5031143;28;20467;-66
2021/11/26 06:25:43;;;;;;;13.20;4.13;;;3.50;99.90;;;;;;5023782;28;20033;-66
2021/11/26 06:28:09;;;;;;;14.30;4.53;;;3.60;99.90;;;;;;5006907;28;20513;-66
2021/11/26 06:30:35;;;;;;;10.75;3.50;;;3.60;99.90;;;;;;5021292;28;20041;-66
2021/11/26 06:33:01;;;;;;;10.60;3.30;;;3.60;99.90;;;;;;5028560;28;20045;-66
2021/11/26 06:35:26;;;;;;;7.85;3.25;;;3.70;99.90;;;;;;5008299;28;20038;-66
2021/11/26 06:37:55;;;;;;;7.43;3.35;;;3.60;99.90;;;;;;5023405;28;20077;-66
2021/11/26 06:40:21;;;;;;;5.90;2.67;;;3.70;99.90;;;;;;5026348;28;20052;-66
2021/11/26 06:42:48;;;;;;;6.95;2.47;;;3.70;99.90;;;;;;4997922;28;20037;-66
2021/11/26 06:45:14;;;;;;;9.35;2.92;;;3.70;99.90;;;;;;5010246;28;20544;-66
2021/11/26 06:47:41;;;;;;;15.15;3.40;;;3.80;99.90;;;;;;5020610;28;20053;-66
2021/11/26 06:50:08;;;;;;;9.18;3.10;;;3.80;99.90;;;;;;5028411;28;20057;-66
2021/11/26 06:52:34;;;;;;;8.75;3.20;;;3.70;99.90;;;;;;5003060;28;20103;-66
2021/11/26 06:55:00;;;;;;;10.07;2.50;;;3.80;99.90;;;;;;5011690;28;20076;-66
2021/11/26 06:57:26;;;;;;;5.75;2.13;;;3.80;99.90;;;;;;5018894;28;20451;-66
2021/11/26 06:59:53;;;;;;;5.72;2.30;;;3.70;99.90;;;;;;5027002;28;20049;-66
2021/11/26 07:02:20;;;;;;;6.32;2.47;;;3.70;99.90;;;;;;5005083;28;20045;-66
2021/11/26 07:04:46;;;;;;;9.27;2.50;;;3.70;99.90;;;;;;5029401;28;20044;-66
2021/11/26 07:07:12;;;;;;;7.45;2.42;;;3.70;99.90;;;;;;5019635;28;20045;-66
2021/11/26 07:09:39;;;;;;;8.43;2.38;;;3.60;99.90;;;;;;5010567;28;20497;-66
2021/11/26 07:12:09;;;;;;;10.85;2.45;;;3.60;99.90;;;;;;5014422;28;20041;-66
2021/11/26 07:14:39;;;;;;;12.45;3.00;;;3.60;99.90;;;;;;5004527;28;20050;-66
2021/11/26 07:17:05;;;;;;;8.95;2.95;;;3.60;99.90;;;;;;5024931;28;20099;-66
2021/11/26 07:19:31;;;;;;;9.93;2.60;;;3.60;99.90;;;;;;5024953;28;20064;-66
2021/11/26 07:21:57;;;;;;;9.68;3.00;;;3.50;99.90;;;;;;5023575;28;20042;-66
2021/11/26 07:24:23;;;;;;;8.43;2.65;;;3.50;99.90;;;;;;5021846;28;20033;-66
2021/11/26 07:26:49;;;;;;;8.80;2.88;;;3.50;99.90;;;;;;5023946;28;20411;-66
2021/11/26 07:29:15;;;;;;;9.05;2.88;;;3.50;99.90;;;;;;5002085;28;20049;-66
2021/11/26 07:31:40;;;;;;;5.38;2.42;;;3.50;99.90;;;;;;5007611;28;20410;-66
2021/11/26 07:34:06;;;;;;;11.07;2.88;;;3.50;99.90;;;;;;5003805;28;20065;-66
2021/11/26 07:36:32;;;;;;;11.43;3.05;;;3.50;99.90;;;;;;5026762;28;20033;-66
2021/11/26 07:38:57;;;;;;;8.55;2.78;;;3.50;99.90;;;;;;5024448;28;20481;-66
2021/11/26 07:41:23;;;;;;;9.85;3.25;;;3.50;99.90;;;;;;5025545;28;20504;-66
2021/11/26 07:43:49;;;;;;;7.60;3.00;;;3.50;99.90;;;;;;5003166;28;20485;-66
2021/11/26 07:46:15;;;;;;;10.60;3.30;;;3.50;99.90;;;;;;5022794;28;20144;-66
2021/11/26 07:48:41;;;;;;;11.43;3.25;;;3.50;99.90;;;;;;5004187;28;20429;-66
2021/11/26 07:51:07;;;;;;;9.10;3.20;;;3.40;99.90;;;;;;5003497;28;20046;-66
2021/11/26 07:53:33;;;;;;;10.77;3.13;;;3.50;99.90;;;;;;5011133;28;20560;-66
2021/11/26 07:55:59;;;;;;;9.13;3.10;;;3.50;99.90;;;;;;5000426;28;20045;-66
2021/11/26 07:58:25;;;;;;;9.20;2.90;;;3.40;99.90;;;;;;5017292;28;20047;-66
2021/11/26 08:00:51;;;;;;;10.15;3.15;;;3.50;99.90;;;;;;4995031;28;20124;-66
2021/11/26 08:03:20;;;;;;;11.18;2.83;;;3.50;99.90;;;;;;5022556;28;20164;-66
2021/11/26 08:05:45;;;;;;;10.25;3.03;;;3.50;99.90;;;;;;5018263;28;20502;-66
2021/11/26 08:08:11;;;;;;;11.60;3.30;;;3.50;99.90;;;;;;5012356;28;20060;-66
2021/11/26 08:10:38;;;;;;;12.15;3.30;;;3.60;99.90;;;;;;5011981;28;20103;-66
2021/11/26 08:13:06;;;;;;;8.52;3.08;;;3.60;99.90;;;;;;5016293;28;20041;-66
2021/11/26 08:15:32;;;;;;;11.98;3.05;;;3.60;99.90;;;;;;5017164;28;20099;-66
2021/11/26 08:18:03;;;;;;;10.30;2.92;;;3.60;99.90;;;;;;5021288;28;20120;-66
2021/11/26 08:20:29;;;;;;;6.47;2.83;;;3.70;99.90;;;;;;5017701;28;20037;-66
2021/11/26 08:22:55;;;;;;;11.85;3.03;;;3.70;99.90;;;;;;5014483;28;20056;-66
2021/11/26 08:25:23;;;;;;;9.27;2.75;;;3.80;99.90;;;;;;5013564;28;20037;-66
2021/11/26 08:27:50;;;;;;;11.43;2.63;;;3.80;99.90;;;;;;5000822;28;20054;-66
2021/11/26 08:30:17;;;;;;;12.60;2.67;;;3.80;99.90;;;;;;5015096;28;20045;-66
2021/11/26 08:32:43;;;;;;;5.88;2.50;;;3.90;99.90;;;;;;5022602;28;20047;-66
2021/11/26 08:35:09;;;;;;;11.18;2.72;;;3.90;99.90;;;;;;5019170;28;20557;-66
2021/11/26 08:37:35;;;;;;;10.75;2.53;;;3.90;99.90;;;;;;5016080;28;20037;-66
2021/11/26 08:40:03;;;;;;;6.50;2.85;;;4.00;99.90;;;;;;5022605;28;20441;-66
2021/11/26 08:42:29;;;;;;;8.52;2.83;;;4.00;99.90;;;;;;4998979;28;20071;-66
2021/11/26 08:44:55;;;;;;;12.20;2.50;;;4.00;99.90;;;;;;5021719;28;20090;-66
2021/11/26 08:47:21;;;;;;;15.25;2.35;;;4.10;99.90;;;;;;5018572;28;20469;-66
2021/11/26 08:49:47;;;;;;;12.43;2.60;;;4.00;99.90;;;;;;4998582;28;20037;-66
2021/11/26 08:52:13;;;;;;;9.40;2.30;;;4.20;99.90;;;;;;5019589;28;20103;-66
2021/11/26 08:54:39;;;;;;;10.25;2.65;;;4.20;99.90;;;;;;4993440;28;20076;-66
2021/11/26 08:57:05;;;;;;;9.55;2.58;;;4.20;99.90;;;;;;4991917;28;20053;-66
2021/11/26 08:59:31;;;;;;;9.57;2.10;;;4.20;99.90;;;;;;5000583;28;20376;-66
2021/11/26 09:01:57;;;;;;;11.07;2.00;;;4.30;99.90;;;;;;4995060;28;20038;-66
2021/11/26 09:04:24;;;;;;;8.13;2.05;;;4.30;99.90;;;;;;5003740;28;21089;-66
2021/11/26 09:06:52;;;;;;;12.07;2.10;;;4.30;99.90;;;;;;4987647;28;20060;-66
2021/11/26 09:09:22;;;;;;;11.18;2.60;;;4.30;99.90;;;;;;5005459;28;20030;-66
2021/11/26 09:11:48;;;;;;;14.05;2.53;;;4.30;99.90;;;;;;4997891;28;20048;-66
2021/11/26 09:14:15;;;;;;;8.20;2.30;;;4.30;99.90;;;;;;5006921;28;20428;-66
2021/11/26 09:16:41;;;;;;;9.02;2.53;;;4.40;99.90;;;;;;5003635;28;20104;-66
2021/11/26 09:19:06;;;;;;;8.38;2.38;;;4.40;99.90;;;;;;4999866;28;20034;-66
2021/11/26 09:21:33;;;;;;;10.02;2.70;;;4.40;99.90;;;;;;5006108;28;20496;-66
2021/11/26 09:23:59;;;;;;;6.45;2.38;;;4.40;99.90;;;;;;5004694;28;20491;-66
2021/11/26 09:26:24;;;;;;;11.63;2.80;;;4.40;99.90;;;;;;5000119;28;20061;-66
2021/11/26 09:28:50;;;;;;;8.50;2.25;;;4.50;99.90;;;;;;5004322;28;20049;-66
2021/11/26 09:31:16;;;;;;;8.50;2.33;;;4.50;99.90;;;;;;5009161;28;20059;-66
2021/11/26 09:33:43;;;;;;;7.90;2.10;;;4.60;99.90;;;;;;5001905;28;20042;-66
2021/11/26 09:36:10;;;;;;;6.68;2.28;;;4.60;99.90;;;;;;5009991;28;20375;-66
2021/11/26 09:38:38;;;;;;;6.90;2.00;;;4.60;99.90;;;;;;5002635;28;20046;-66
2021/11/26 09:41:06;;;;;;;8.45;2.15;;;4.70;99.90;;;;;;5010765;28;20100;-66
2021/11/26 09:43:32;;;;;;;9.90;2.20;;;4.70;99.90;;;;;;5000114;28;20470;-66
2021/11/26 09:46:02;;;;;;;12.10;3.40;;;4.70;99.90;;;;;;5003263;28;20074;-66
2021/11/26 09:48:27;;;;;;;8.40;2.40;;;4.70;99.90;;;;;;5004184;28;20142;-66
2021/11/26 09:50:53;;;;;;;9.20;2.90;;;4.70;99.90;;;;;;5007152;28;20112;-66
2021/11/26 09:53:22;;;;;;;8.55;2.50;;;4.80;99.90;;;;;;5006162;28;20146;-66
2021/11/26 09:56:01;;;;;;;8.98;2.50;;;4.80;99.90;;;;;;5008135;28;20129;-66
2021/11/26 09:58:31;;;;;;;6.18;2.30;;;4.80;99.90;;;;;;5024759;28;20033;-66
2021/11/26 10:00:58;;;;;;;10.73;2.42;;;4.80;99.90;;;;;;5025256;28;20449;-66
2021/11/26 10:03:36;;;;;;;8.55;2.22;;;4.90;99.90;;;;;;5024511;28;20545;-66
2021/11/26 10:06:02;;;;;;;9.07;2.30;;;4.90;99.90;;;;;;5011774;28;20050;-66
2021/11/26 10:08:28;;;;;;;10.18;2.78;;;4.90;99.90;;;;;;5030551;28;20052;-66
2021/11/26 10:10:58;;;;;;;12.02;2.83;;;5.00;99.90;;;;;;5000412;28;20571;-66
2021/11/26 10:13:24;;;;;;;8.00;2.42;;;5.10;99.90;;;;;;5002846;28;20053;-66
2021/11/26 10:15:51;;;;;;;13.18;2.67;;;5.10;99.90;;;;;;4989746;28;20141;-66
2021/11/26 10:18:25;;;;;;;9.98;2.70;;;5.20;99.90;;;;;;5024818;28;20040;-66
2021/11/26 10:20:54;;;;;;;12.32;2.45;;;5.30;99.90;;;;;;5001186;28;20127;-66
2021/11/26 10:23:21;;;;;;;9.63;2.60;;;5.40;99.90;;;;;;5026656;28;20034;-66
2021/11/26 10:25:47;;;;;;;11.30;2.47;;;5.40;99.90;;;;;;5022495;28;20040;-66
2021/11/26 10:28:14;;;;;;;13.60;2.83;;;5.50;99.90;;;;;;5024064;28;20065;-66
2021/11/26 10:30:42;;;;;;;12.00;2.70;;;5.50;99.90;;;;;;5005253;28;20049;-66
2021/11/26 10:33:25;;;;;;;9.43;2.30;;;5.60;99.90;;;;;;5027225;28;20038;-66
2021/11/26 10:35:57;;;;;;;8.90;2.10;;;5.60;99.90;;;;;;5001552;28;20061;-67
2021/11/26 10:38:29;;;;;;;10.27;2.60;;;5.70;99.90;;;;;;5027774;28;20052;-67
2021/11/26 10:40:59;;;;;;;11.93;3.00;;;5.70;99.90;;;;;;5017014;28;20081;-66
2021/11/26 10:43:43;;;;;;;8.00;1.98;;;5.80;99.90;;;;;;5027121;28;20485;-67
2021/11/26 11:00:06;;;;;;;11.45;2.80;;;5.80;99.90;;;;;;5023972;28;20405;-66
2021/11/26 11:02:36;;;;;;;12.00;3.30;;;5.70;99.90;;;;;;5022501;28;20042;-66
2021/11/26 11:05:04;;;;;;;10.23;3.17;;;5.70;99.90;;;;;;5023593;28;20037;-66
2021/11/26 11:07:44;;;;;;;12.38;3.47;;;5.70;99.90;;;;;;4998914;28;20061;-66
2021/11/26 11:10:24;;;;;;;9.05;3.45;;;5.60;99.90;;;;;;5021255;28;20041;-66
2021/11/26 11:12:50;;;;;;;12.57;3.97;;;5.50;99.90;;;;;;5017640;28;20045;-66
2021/11/26 11:15:17;;;;;;;11.38;3.28;;;5.50;99.90;;;;;;5025439;28;20565;-66
2021/11/26 11:17:46;;;;;;;11.88;3.60;;;5.40;99.90;;;;;;5019582;28;20042;-66
2021/11/26 11:20:16;;;;;;;15.27;3.70;;;5.40;99.90;;;;;;5020852;28;20108;-66
2021/11/26 11:22:43;;;;;;;11.57;3.20;;;5.40;99.90;;;;;;5019865;28;20037;-66
2021/11/26 11:25:11;;;;;;;10.00;3.58;;;5.50;99.90;;;;;;5020657;28;20033;-66
2021/11/26 11:27:37;;;;;;;10.88;3.45;;;5.50;99.90;;;;;;5019668;28;20269;-66
2021/11/26 11:30:09;;;;;;;14.23;3.85;;;5.40;99.90;;;;;;5019797;28;20056;-66
2021/11/26 11:32:37;;;;;;;14.57;4.15;;;5.50;99.90;;;;;;4999829;28;20075;-66
2021/11/26 11:35:07;;;;;;;13.63;4.32;;;5.40;99.90;;;;;;5021164;28;20038;-66
2021/11/26 11:37:33;;;;;;;15.15;4.07;;;5.50;99.90;;;;;;5010588;28;20645;-66
2021/11/26 11:40:03;;;;;;;16.15;4.93;;;5.50;99.90;;;;;;5027223;28;20073;-66
2021/11/26 11:42:36;;;;;;;7.82;3.95;;;5.50;99.90;;;;;;5016348;28;20042;-66
2021/11/26 11:45:07;;;;;;;12.45;4.47;;;5.50;99.90;;;;;;5025010;28;20501;-66
2021/11/26 11:47:33;;;;;;;14.25;4.90;;;5.60;99.90;;;;;;5007253;28;20526;-66
2021/11/26 11:50:18;;;;;;;16.75;5.65;;;5.60;99.90;;;;;;5020328;28;20120;-66
2021/11/26 11:53:04;;;;;;;13.23;5.18;;;5.70;99.90;;;;;;5023353;28;20120;-66
2021/11/26 11:55:30;;;;;;;18.23;5.45;;;5.70;99.90;;;;;;5008944;28;20144;-66
2021/11/26 11:58:27;;;;;;;14.05;4.90;;;5.70;99.90;;;;;;5025004;28;20144;-66
2021/11/26 12:00:54;;;;;;;12.10;4.90;;;5.80;99.90;;;;;;5024445;28;20049;-66
2021/11/26 12:03:22;;;;;;;13.88;4.70;;;5.80;99.90;;;;;;4997607;28;20042;-66
2021/11/26 12:05:58;;;;;;;13.55;5.10;;;5.80;99.90;;;;;;5027255;28;20038;-66
2021/11/26 12:08:25;;;;;;;10.70;4.65;;;5.80;99.90;;;;;;5006048;28;20262;-66
2021/11/26 12:10:54;;;;;;;11.40;4.57;;;5.80;99.90;;;;;;5026738;28;20064;-66
2021/11/26 12:13:35;;;;;;;12.95;4.05;;;5.80;99.90;;;;;;5009022;28;20052;-66
2021/11/26 12:16:07;;;;;;;11.30;4.25;;;5.80;99.90;;;;;;5001710;28;20516;-66
2021/11/26 12:18:37;;;;;;;13.60;5.03;;;5.70;99.90;;;;;;5026666;28;20038;-66
2021/11/26 12:21:03;;;;;;;10.35;3.70;;;5.80;99.90;;;;;;5021936;28;20077;-66
2021/11/26 12:23:34;;;;;;;12.68;4.75;;;5.70;99.90;;;;;;5008741;28;20077;-66
2021/11/26 12:26:22;;;;;;;16.92;4.40;;;5.80;99.90;;;;;;5004450;28;20638;-66
2021/11/26 12:28:53;;;;;;;23.08;7.50;;;5.80;99.90;;;;;;5028154;28;20053;-66
2021/11/26 12:31:34;;;;;;;11.45;4.55;;;5.80;99.90;;;;;;5015703;28;20049;-66
2021/11/26 12:34:07;;;;;;;13.15;3.60;;;5.80;99.90;;;;;;5025088;28;20500;-66
2021/11/26 12:36:54;;;;;;;15.93;4.53;;;5.70;99.90;;;;;;5021275;28;20110;-66
2021/11/26 12:39:25;;;;;;;12.45;3.75;;;5.80;99.90;;;;;;5025549;28;20037;-66
2021/11/26 12:41:59;;;;;;;8.15;3.97;;;5.70;99.90;;;;;;5020100;28;20464;-66
2021/11/26 12:44:31;;;;;;;11.60;4.55;;;5.80;99.90;;;;;;5024706;28;20500;-66
2021/11/26 12:46:59;;;;;;;10.32;3.88;;;5.70;99.90;;;;;;5002703;28;20045;-66
2021/11/26 12:52:02;;;;;;;10.15;3.70;;;5.80;99.90;;;;;;5024047;28;20052;-66
2021/11/26 12:54:43;;;;;;;8.23;3.00;;;5.70;99.90;;;;;;5012232;28;20049;-66
2021/11/26 12:57:17;;;;;;;9.85;3.33;;;5.70;99.90;;;;;;5021658;28;20106;-66
2021/11/26 12:59:48;;;;;;;7.67;3.30;;;5.70;99.90;;;;;;5012323;28;20057;-67
2021/11/26 13:02:19;;;;;;;10.18;3.03;;;5.70;99.90;;;;;;5025027;28;20121;-66
2021/11/26 13:04:57;;;;;;;7.40;2.80;;;5.70;99.90;;;;;;5026414;28;20071;-66
2021/11/26 13:07:25;;;;;;;10.32;3.53;;;5.70;99.90;;;;;;5019984;28;20048;-66
2021/11/26 13:09:54;;;;;;;11.60;3.40;;;5.80;99.90;;;;;;5027416;28;20207;-66
2021/11/26 13:12:23;;;;;;;7.18;3.10;;;5.80;99.90;;;;;;5003639;28;20084;-66